sensor_id;sensor_type;location;lat;lon;timestamp;P1;durP1;ratioP1;P2;durP2;ratioP2
76640;SDS011;65538;50.798;6.064;2023-08-01T00:00:29;0.50;;;0.30;;
76640;SDS011;65538;50.798;6.064;2023-08-01T00:02:54;0.82;;;0.38;;
76640;SDS011;65538;50.798;6.064;2023-08-01T00:05:19;0.90;;;0.40;;
76640;SDS011;65538;50.798;6.064;2023-08-01T00:07:44;0.80;;;0.40;;
76640;SDS011;65538;50.798;6.064;2023-08-01T00:10:10;0.67;;;0.40;;
76640;SDS011;65538;50.798;6.064;2023-08-01T00:12:44;0.80;;;0.45;;
76640;SDS011;65538;50.798;6.064;2023-08-01T00:15:09;0.57;;;0.40;;
76640;SDS011;65538;50.798;6.064;2023-08-01T00:17:35;1.00;;;0.50;;
76640;SDS011;65538;50.798;6.064;2023-08-01T00:20:09;1.05;;;0.50;;
76640;SDS011;65538;50.798;6.064;2023-08-01T00:22:35;0.60;;;0.43;;
76640;SDS011;65538;50.798;6.064;2023-08-01T00:25:20;1.30;;;0.60;;
76640;SDS011;65538;50.798;6.064;2023-08-01T00:27:54;2.03;;;0.52;;
76640;SDS011;65538;50.798;6.064;2023-08-01T00:30:20;1.23;;;0.52;;
76640;SDS011;65538;50.798;6.064;2023-08-01T00:32:45;2.03;;;0.60;;
76640;SDS011;65538;50.798;6.064;2023-08-01T00:35:10;1.20;;;0.57;;
76640;SDS011;65538;50.798;6.064;2023-08-01T00:37:37;3.37;;;0.77;;
76640;SDS011;65538;50.798;6.064;2023-08-01T00:40:02;1.60;;;0.60;;
76640;SDS011;65538;50.798;6.064;2023-08-01T00:42:28;1.33;;;0.63;;
76640;SDS011;65538;50.798;6.064;2023-08-01T00:44:53;1.60;;;0.83;;
76640;SDS011;65538;50.798;6.064;2023-08-01T00:47:19;1.48;;;0.82;;
76640;SDS011;65538;50.798;6.064;2023-08-01T00:49:44;1.70;;;0.70;;
76640;SDS011;65538;50.798;6.064;2023-08-01T00:52:09;1.70;;;0.68;;
76640;SDS011;65538;50.798;6.064;2023-08-01T00:54:35;2.90;;;0.60;;
76640;SDS011;65538;50.798;6.064;2023-08-01T00:57:04;2.92;;;0.82;;
76640;SDS011;65538;50.798;6.064;2023-08-01T00:59:30;1.95;;;0.70;;
76640;SDS011;65538;50.798;6.064;2023-08-01T01:01:56;1.95;;;0.85;;
76640;SDS011;65538;50.798;6.064;2023-08-01T01:04:21;1.73;;;0.80;;
76640;SDS011;65538;50.798;6.064;2023-08-01T01:06:47;1.85;;;0.80;;
76640;SDS011;65538;50.798;6.064;2023-08-01T01:09:17;2.25;;;0.85;;
76640;SDS011;65538;50.798;6.064;2023-08-01T01:11:43;2.08;;;0.90;;
76640;SDS011;65538;50.798;6.064;2023-08-01T01:14:08;1.75;;;0.77;;
76640;SDS011;65538;50.798;6.064;2023-08-01T01:16:34;1.70;;;0.90;;
76640;SDS011;65538;50.798;6.064;2023-08-01T01:18:59;1.50;;;0.70;;
76640;SDS011;65538;50.798;6.064;2023-08-01T01:21:24;3.07;;;0.83;;
76640;SDS011;65538;50.798;6.064;2023-08-01T01:23:50;3.17;;;0.98;;
76640;SDS011;65538;50.798;6.064;2023-08-01T01:26:15;2.97;;;0.93;;
76640;SDS011;65538;50.798;6.064;2023-08-01T01:28:41;2.25;;;1.25;;
76640;SDS011;65538;50.798;6.064;2023-08-01T01:31:07;1.90;;;0.93;;
76640;SDS011;65538;50.798;6.064;2023-08-01T01:33:32;2.50;;;0.90;;
76640;SDS011;65538;50.798;6.064;2023-08-01T01:35:59;2.30;;;0.97;;
76640;SDS011;65538;50.798;6.064;2023-08-01T01:38:25;4.43;;;1.38;;
76640;SDS011;65538;50.798;6.064;2023-08-01T01:40:50;4.15;;;1.25;;
76640;SDS011;65538;50.798;6.064;2023-08-01T01:43:15;2.60;;;1.27;;
76640;SDS011;65538;50.798;6.064;2023-08-01T01:45:40;2.43;;;1.07;;
76640;SDS011;65538;50.798;6.064;2023-08-01T01:48:05;3.60;;;1.40;;
76640;SDS011;65538;50.798;6.064;2023-08-01T01:50:31;3.27;;;1.47;;
76640;SDS011;65538;50.798;6.064;2023-08-01T01:52:56;2.40;;;1.07;;
76640;SDS011;65538;50.798;6.064;2023-08-01T01:55:21;2.50;;;1.10;;
76640;SDS011;65538;50.798;6.064;2023-08-01T01:57:46;3.00;;;1.27;;
76640;SDS011;65538;50.798;6.064;2023-08-01T02:00:12;2.73;;;1.20;;
76640;SDS011;65538;50.798;6.064;2023-08-01T02:02:37;3.83;;;1.50;;
76640;SDS011;65538;50.798;6.064;2023-08-01T02:05:02;3.00;;;1.10;;
76640;SDS011;65538;50.798;6.064;2023-08-01T02:07:30;3.30;;;1.80;;
76640;SDS011;65538;50.798;6.064;2023-08-01T02:09:56;3.63;;;1.70;;
76640;SDS011;65538;50.798;6.064;2023-08-01T02:12:21;5.00;;;2.03;;
76640;SDS011;65538;50.798;6.064;2023-08-01T02:14:46;4.37;;;2.43;;
76640;SDS011;65538;50.798;6.064;2023-08-01T02:17:11;5.67;;;2.67;;
76640;SDS011;65538;50.798;6.064;2023-08-01T02:19:36;3.07;;;1.93;;
76640;SDS011;65538;50.798;6.064;2023-08-01T02:22:02;4.13;;;2.20;;
76640;SDS011;65538;50.798;6.064;2023-08-01T02:24:27;4.77;;;2.63;;
76640;SDS011;65538;50.798;6.064;2023-08-01T02:26:52;5.73;;;2.57;;
76640;SDS011;65538;50.798;6.064;2023-08-01T02:29:17;4.90;;;2.30;;
76640;SDS011;65538;50.798;6.064;2023-08-01T02:31:42;7.40;;;2.97;;
76640;SDS011;65538;50.798;6.064;2023-08-01T02:34:08;5.63;;;2.93;;
76640;SDS011;65538;50.798;6.064;2023-08-01T02:36:33;6.22;;;2.92;;
76640;SDS011;65538;50.798;6.064;2023-08-01T02:38:58;6.03;;;2.77;;
76640;SDS011;65538;50.798;6.064;2023-08-01T02:41:23;7.07;;;2.83;;
76640;SDS011;65538;50.798;6.064;2023-08-01T02:43:49;5.70;;;3.43;;
76640;SDS011;65538;50.798;6.064;2023-08-01T02:46:14;7.77;;;3.20;;
76640;SDS011;65538;50.798;6.064;2023-08-01T02:48:39;7.63;;;4.30;;
76640;SDS011;65538;50.798;6.064;2023-08-01T02:51:04;5.93;;;3.20;;
76640;SDS011;65538;50.798;6.064;2023-08-01T02:53:30;7.45;;;4.07;;
76640;SDS011;65538;50.798;6.064;2023-08-01T02:55:55;8.00;;;4.53;;
76640;SDS011;65538;50.798;6.064;2023-08-01T02:58:20;6.97;;;3.80;;
76640;SDS011;65538;50.798;6.064;2023-08-01T03:00:46;6.77;;;2.80;;
76640;SDS011;65538;50.798;6.064;2023-08-01T03:03:12;8.13;;;4.15;;
76640;SDS011;65538;50.798;6.064;2023-08-01T03:05:38;7.35;;;4.25;;
76640;SDS011;65538;50.798;6.064;2023-08-01T03:08:03;8.50;;;4.20;;
76640;SDS011;65538;50.798;6.064;2023-08-01T03:10:29;6.80;;;4.93;;
76640;SDS011;65538;50.798;6.064;2023-08-01T03:12:54;6.50;;;3.87;;
76640;SDS011;65538;50.798;6.064;2023-08-01T03:15:31;5.97;;;3.57;;
76640;SDS011;65538;50.798;6.064;2023-08-01T03:17:57;9.50;;;4.28;;
76640;SDS011;65538;50.798;6.064;2023-08-01T03:20:22;6.80;;;4.50;;
76640;SDS011;65538;50.798;6.064;2023-08-01T03:22:47;8.85;;;4.43;;
76640;SDS011;65538;50.798;6.064;2023-08-01T03:25:13;10.33;;;5.13;;
76640;SDS011;65538;50.798;6.064;2023-08-01T03:27:38;14.90;;;4.10;;
76640;SDS011;65538;50.798;6.064;2023-08-01T03:30:03;7.80;;;4.33;;
76640;SDS011;65538;50.798;6.064;2023-08-01T03:32:33;9.05;;;4.82;;
76640;SDS011;65538;50.798;6.064;2023-08-01T03:34:59;10.90;;;4.65;;
76640;SDS011;65538;50.798;6.064;2023-08-01T03:37:24;13.23;;;5.17;;
76640;SDS011;65538;50.798;6.064;2023-08-01T03:39:49;7.20;;;3.63;;
76640;SDS011;65538;50.798;6.064;2023-08-01T03:42:14;9.30;;;4.77;;
76640;SDS011;65538;50.798;6.064;2023-08-01T03:44:40;8.75;;;4.60;;
76640;SDS011;65538;50.798;6.064;2023-08-01T03:47:05;8.37;;;5.33;;
76640;SDS011;65538;50.798;6.064;2023-08-01T03:49:31;9.40;;;5.03;;
76640;SDS011;65538;50.798;6.064;2023-08-01T03:51:56;9.20;;;3.90;;
76640;SDS011;65538;50.798;6.064;2023-08-01T03:54:22;10.50;;;5.73;;
76640;SDS011;65538;50.798;6.064;2023-08-01T03:56:47;9.60;;;5.43;;
76640;SDS011;65538;50.798;6.064;2023-08-01T03:59:15;8.93;;;5.10;;
76640;SDS011;65538;50.798;6.064;2023-08-01T04:01:41;12.38;;;5.85;;
76640;SDS011;65538;50.798;6.064;2023-08-01T04:04:07;11.68;;;5.00;;
76640;SDS011;65538;50.798;6.064;2023-08-01T04:06:32;9.82;;;5.38;;
76640;SDS011;65538;50.798;6.064;2023-08-01T04:08:57;11.37;;;4.70;;
76640;SDS011;65538;50.798;6.064;2023-08-01T04:11:24;9.88;;;4.85;;
76640;SDS011;65538;50.798;6.064;2023-08-01T04:13:50;14.20;;;6.20;;
76640;SDS011;65538;50.798;6.064;2023-08-01T04:16:15;8.90;;;4.97;;
76640;SDS011;65538;50.798;6.064;2023-08-01T04:18:40;11.00;;;5.07;;
76640;SDS011;65538;50.798;6.064;2023-08-01T04:21:06;13.67;;;5.27;;
76640;SDS011;65538;50.798;6.064;2023-08-01T04:23:31;10.88;;;4.30;;
76640;SDS011;65538;50.798;6.064;2023-08-01T04:25:56;9.57;;;4.70;;
76640;SDS011;65538;50.798;6.064;2023-08-01T04:28:23;10.27;;;5.00;;
76640;SDS011;65538;50.798;6.064;2023-08-01T04:30:51;9.33;;;4.73;;
76640;SDS011;65538;50.798;6.064;2023-08-01T04:33:17;7.00;;;4.13;;
76640;SDS011;65538;50.798;6.064;2023-08-01T04:35:42;12.82;;;5.68;;
76640;SDS011;65538;50.798;6.064;2023-08-01T04:38:07;11.60;;;5.13;;
76640;SDS011;65538;50.798;6.064;2023-08-01T04:40:33;12.05;;;5.70;;
76640;SDS011;65538;50.798;6.064;2023-08-01T04:42:59;10.38;;;4.85;;
76640;SDS011;65538;50.798;6.064;2023-08-01T04:45:24;10.20;;;5.23;;
76640;SDS011;65538;50.798;6.064;2023-08-01T04:47:49;9.97;;;5.03;;
76640;SDS011;65538;50.798;6.064;2023-08-01T04:50:14;10.70;;;3.77;;
76640;SDS011;65538;50.798;6.064;2023-08-01T04:52:39;10.67;;;4.53;;
76640;SDS011;65538;50.798;6.064;2023-08-01T04:55:05;11.73;;;4.17;;
76640;SDS011;65538;50.798;6.064;2023-08-01T04:57:30;9.65;;;5.13;;
76640;SDS011;65538;50.798;6.064;2023-08-01T04:59:55;10.20;;;4.07;;
76640;SDS011;65538;50.798;6.064;2023-08-01T05:02:20;18.50;;;4.67;;
76640;SDS011;65538;50.798;6.064;2023-08-01T05:04:46;13.10;;;5.27;;
76640;SDS011;65538;50.798;6.064;2023-08-01T05:07:11;7.80;;;3.83;;
76640;SDS011;65538;50.798;6.064;2023-08-01T05:09:36;8.63;;;4.30;;
76640;SDS011;65538;50.798;6.064;2023-08-01T05:12:01;10.40;;;4.70;;
76640;SDS011;65538;50.798;6.064;2023-08-01T05:14:26;11.23;;;5.17;;
76640;SDS011;65538;50.798;6.064;2023-08-01T05:16:52;10.47;;;4.37;;
76640;SDS011;65538;50.798;6.064;2023-08-01T05:19:17;5.90;;;3.70;;
76640;SDS011;65538;50.798;6.064;2023-08-01T05:21:42;8.13;;;3.60;;
76640;SDS011;65538;50.798;6.064;2023-08-01T05:24:07;15.47;;;5.07;;
76640;SDS011;65538;50.798;6.064;2023-08-01T05:26:32;11.17;;;4.93;;
76640;SDS011;65538;50.798;6.064;2023-08-01T05:28:58;8.67;;;4.23;;
76640;SDS011;65538;50.798;6.064;2023-08-01T05:31:23;8.67;;;4.17;;
76640;SDS011;65538;50.798;6.064;2023-08-01T05:33:48;7.90;;;4.97;;
76640;SDS011;65538;50.798;6.064;2023-08-01T05:36:34;8.57;;;4.30;;
76640;SDS011;65538;50.798;6.064;2023-08-01T05:39:02;7.38;;;3.42;;
76640;SDS011;65538;50.798;6.064;2023-08-01T05:41:27;11.45;;;5.30;;
76640;SDS011;65538;50.798;6.064;2023-08-01T05:43:53;13.20;;;5.10;;
76640;SDS011;65538;50.798;6.064;2023-08-01T05:46:18;13.73;;;4.30;;
76640;SDS011;65538;50.798;6.064;2023-08-01T05:48:43;13.17;;;4.33;;
76640;SDS011;65538;50.798;6.064;2023-08-01T05:51:08;12.00;;;5.27;;
76640;SDS011;65538;50.798;6.064;2023-08-01T05:53:34;11.67;;;5.13;;
76640;SDS011;65538;50.798;6.064;2023-08-01T05:55:59;12.07;;;5.17;;
76640;SDS011;65538;50.798;6.064;2023-08-01T05:58:32;12.93;;;5.07;;
76640;SDS011;65538;50.798;6.064;2023-08-01T06:00:59;16.17;;;5.20;;
76640;SDS011;65538;50.798;6.064;2023-08-01T06:03:25;10.13;;;4.70;;
76640;SDS011;65538;50.798;6.064;2023-08-01T06:05:50;9.40;;;4.30;;
76640;SDS011;65538;50.798;6.064;2023-08-01T06:08:15;12.47;;;4.83;;
76640;SDS011;65538;50.798;6.064;2023-08-01T06:10:43;15.77;;;5.73;;
76640;SDS011;65538;50.798;6.064;2023-08-01T06:13:09;9.43;;;4.03;;
76640;SDS011;65538;50.798;6.064;2023-08-01T06:15:34;13.17;;;5.40;;
76640;SDS011;65538;50.798;6.064;2023-08-01T06:17:59;12.80;;;4.93;;
76640;SDS011;65538;50.798;6.064;2023-08-01T06:20:25;11.63;;;5.50;;
76640;SDS011;65538;50.798;6.064;2023-08-01T06:22:50;15.80;;;5.72;;
76640;SDS011;65538;50.798;6.064;2023-08-01T06:25:18;9.93;;;4.87;;
76640;SDS011;65538;50.798;6.064;2023-08-01T06:27:43;14.45;;;7.18;;
76640;SDS011;65538;50.798;6.064;2023-08-01T06:30:11;22.57;;;7.10;;
76640;SDS011;65538;50.798;6.064;2023-08-01T06:32:36;17.45;;;6.82;;
76640;SDS011;65538;50.798;6.064;2023-08-01T06:35:02;13.30;;;6.37;;
76640;SDS011;65538;50.798;6.064;2023-08-01T06:37:27;17.43;;;7.67;;
76640;SDS011;65538;50.798;6.064;2023-08-01T06:39:54;18.23;;;6.20;;
76640;SDS011;65538;50.798;6.064;2023-08-01T06:42:19;18.38;;;8.30;;
76640;SDS011;65538;50.798;6.064;2023-08-01T06:44:45;15.53;;;6.63;;
76640;SDS011;65538;50.798;6.064;2023-08-01T06:47:11;15.88;;;7.45;;
76640;SDS011;65538;50.798;6.064;2023-08-01T06:49:37;14.90;;;6.90;;
76640;SDS011;65538;50.798;6.064;2023-08-01T06:52:02;15.20;;;6.47;;
76640;SDS011;65538;50.798;6.064;2023-08-01T06:54:27;20.10;;;8.43;;
76640;SDS011;65538;50.798;6.064;2023-08-01T06:56:52;21.07;;;9.13;;
76640;SDS011;65538;50.798;6.064;2023-08-01T06:59:18;16.97;;;7.63;;
76640;SDS011;65538;50.798;6.064;2023-08-01T07:01:43;15.07;;;6.87;;
76640;SDS011;65538;50.798;6.064;2023-08-01T07:04:11;12.13;;;6.55;;
76640;SDS011;65538;50.798;6.064;2023-08-01T07:06:36;14.85;;;7.70;;
76640;SDS011;65538;50.798;6.064;2023-08-01T07:09:02;18.60;;;8.13;;
76640;SDS011;65538;50.798;6.064;2023-08-01T07:11:27;12.37;;;6.80;;
76640;SDS011;65538;50.798;6.064;2023-08-01T07:13:52;18.77;;;7.00;;
76640;SDS011;65538;50.798;6.064;2023-08-01T07:16:17;13.63;;;6.50;;
76640;SDS011;65538;50.798;6.064;2023-08-01T07:18:42;12.47;;;6.07;;
76640;SDS011;65538;50.798;6.064;2023-08-01T07:21:08;10.90;;;5.33;;
76640;SDS011;65538;50.798;6.064;2023-08-01T07:23:33;14.50;;;6.50;;
76640;SDS011;65538;50.798;6.064;2023-08-01T07:25:59;13.57;;;6.03;;
76640;SDS011;65538;50.798;6.064;2023-08-01T07:28:24;12.63;;;5.73;;
76640;SDS011;65538;50.798;6.064;2023-08-01T07:30:57;15.07;;;6.93;;
76640;SDS011;65538;50.798;6.064;2023-08-01T07:33:22;15.40;;;5.97;;
76640;SDS011;65538;50.798;6.064;2023-08-01T07:35:48;15.87;;;6.00;;
76640;SDS011;65538;50.798;6.064;2023-08-01T07:38:13;11.50;;;5.40;;
76640;SDS011;65538;50.798;6.064;2023-08-01T07:40:38;11.57;;;5.03;;
76640;SDS011;65538;50.798;6.064;2023-08-01T07:43:03;13.70;;;6.20;;
76640;SDS011;65538;50.798;6.064;2023-08-01T07:45:28;17.03;;;6.13;;
76640;SDS011;65538;50.798;6.064;2023-08-01T07:47:53;9.30;;;4.17;;
76640;SDS011;65538;50.798;6.064;2023-08-01T07:50:19;12.03;;;5.57;;
76640;SDS011;65538;50.798;6.064;2023-08-01T07:52:44;11.07;;;5.10;;
76640;SDS011;65538;50.798;6.064;2023-08-01T07:55:09;11.80;;;4.80;;
76640;SDS011;65538;50.798;6.064;2023-08-01T07:57:34;10.47;;;5.30;;
76640;SDS011;65538;50.798;6.064;2023-08-01T07:59:59;8.07;;;3.07;;
76640;SDS011;65538;50.798;6.064;2023-08-01T08:02:25;9.23;;;4.50;;
76640;SDS011;65538;50.798;6.064;2023-08-01T08:04:50;10.03;;;4.53;;
76640;SDS011;65538;50.798;6.064;2023-08-01T08:07:15;13.43;;;5.43;;
76640;SDS011;65538;50.798;6.064;2023-08-01T08:09:40;10.60;;;4.70;;
76640;SDS011;65538;50.798;6.064;2023-08-01T08:12:05;11.33;;;4.97;;
76640;SDS011;65538;50.798;6.064;2023-08-01T08:14:31;9.23;;;4.22;;
76640;SDS011;65538;50.798;6.064;2023-08-01T08:16:56;7.77;;;3.63;;
76640;SDS011;65538;50.798;6.064;2023-08-01T08:19:21;10.13;;;5.10;;
76640;SDS011;65538;50.798;6.064;2023-08-01T08:21:49;12.68;;;4.43;;
76640;SDS011;65538;50.798;6.064;2023-08-01T08:24:14;7.13;;;2.90;;
76640;SDS011;65538;50.798;6.064;2023-08-01T08:26:39;12.63;;;4.77;;
76640;SDS011;65538;50.798;6.064;2023-08-01T08:29:05;10.73;;;5.07;;
76640;SDS011;65538;50.798;6.064;2023-08-01T08:31:30;10.60;;;3.53;;
76640;SDS011;65538;50.798;6.064;2023-08-01T08:33:55;9.93;;;3.30;;
76640;SDS011;65538;50.798;6.064;2023-08-01T08:36:20;11.87;;;4.33;;
76640;SDS011;65538;50.798;6.064;2023-08-01T08:38:45;10.43;;;4.60;;
76640;SDS011;65538;50.798;6.064;2023-08-01T08:41:13;9.07;;;4.30;;
76640;SDS011;65538;50.798;6.064;2023-08-01T08:43:38;9.13;;;4.13;;
76640;SDS011;65538;50.798;6.064;2023-08-01T08:46:04;8.27;;;4.10;;
76640;SDS011;65538;50.798;6.064;2023-08-01T08:48:30;8.98;;;4.35;;
76640;SDS011;65538;50.798;6.064;2023-08-01T08:50:59;11.80;;;4.50;;
76640;SDS011;65538;50.798;6.064;2023-08-01T08:53:25;10.63;;;4.28;;
76640;SDS011;65538;50.798;6.064;2023-08-01T08:55:50;12.45;;;4.03;;
76640;SDS011;65538;50.798;6.064;2023-08-01T08:58:16;10.77;;;3.60;;
76640;SDS011;65538;50.798;6.064;2023-08-01T09:00:41;7.75;;;3.65;;
76640;SDS011;65538;50.798;6.064;2023-08-01T09:03:06;12.75;;;4.43;;
76640;SDS011;65538;50.798;6.064;2023-08-01T09:05:34;8.00;;;3.53;;
76640;SDS011;65538;50.798;6.064;2023-08-01T09:08:00;9.07;;;3.92;;
76640;SDS011;65538;50.798;6.064;2023-08-01T09:10:27;8.25;;;4.13;;
76640;SDS011;65538;50.798;6.064;2023-08-01T09:12:52;11.00;;;4.17;;
76640;SDS011;65538;50.798;6.064;2023-08-01T09:15:18;8.50;;;3.50;;
76640;SDS011;65538;50.798;6.064;2023-08-01T09:17:50;9.75;;;3.10;;
76640;SDS011;65538;50.798;6.064;2023-08-01T09:20:15;8.93;;;3.25;;
76640;SDS011;65538;50.798;6.064;2023-08-01T09:22:41;9.47;;;3.53;;
76640;SDS011;65538;50.798;6.064;2023-08-01T09:25:07;10.50;;;3.58;;
76640;SDS011;65538;50.798;6.064;2023-08-01T09:27:33;8.80;;;3.92;;
76640;SDS011;65538;50.798;6.064;2023-08-01T09:30:05;7.93;;;3.42;;
76640;SDS011;65538;50.798;6.064;2023-08-01T09:32:30;10.27;;;4.00;;
76640;SDS011;65538;50.798;6.064;2023-08-01T09:34:58;11.00;;;4.10;;
76640;SDS011;65538;50.798;6.064;2023-08-01T09:37:24;11.60;;;3.58;;
76640;SDS011;65538;50.798;6.064;2023-08-01T09:39:53;10.53;;;3.53;;
76640;SDS011;65538;50.798;6.064;2023-08-01T09:42:19;8.25;;;3.60;;
76640;SDS011;65538;50.798;6.064;2023-08-01T09:44:45;10.77;;;4.13;;
76640;SDS011;65538;50.798;6.064;2023-08-01T09:47:11;7.57;;;3.47;;
76640;SDS011;65538;50.798;6.064;2023-08-01T09:49:46;9.07;;;3.80;;
76640;SDS011;65538;50.798;6.064;2023-08-01T09:52:12;7.55;;;3.17;;
76640;SDS011;65538;50.798;6.064;2023-08-01T09:54:37;7.00;;;2.30;;
76640;SDS011;65538;50.798;6.064;2023-08-01T09:57:02;8.57;;;3.00;;
76640;SDS011;65538;50.798;6.064;2023-08-01T09:59:29;13.63;;;3.08;;
76640;SDS011;65538;50.798;6.064;2023-08-01T10:01:55;7.90;;;2.78;;
76640;SDS011;65538;50.798;6.064;2023-08-01T10:04:26;6.95;;;3.08;;
76640;SDS011;65538;50.798;6.064;2023-08-01T10:07:04;7.88;;;3.38;;
76640;SDS011;65538;50.798;6.064;2023-08-01T10:09:31;9.60;;;3.40;;
76640;SDS011;65538;50.798;6.064;2023-08-01T10:11:58;10.35;;;3.22;;
76640;SDS011;65538;50.798;6.064;2023-08-01T10:14:25;11.20;;;3.30;;
76640;SDS011;65538;50.798;6.064;2023-08-01T10:16:50;6.68;;;2.75;;
76640;SDS011;65538;50.798;6.064;2023-08-01T10:19:16;7.80;;;3.08;;
76640;SDS011;65538;50.798;6.064;2023-08-01T10:21:42;8.57;;;2.83;;
76640;SDS011;65538;50.798;6.064;2023-08-01T10:24:08;9.68;;;2.65;;
76640;SDS011;65538;50.798;6.064;2023-08-01T10:26:34;8.38;;;3.13;;
76640;SDS011;65538;50.798;6.064;2023-08-01T10:29:00;9.47;;;3.60;;
76640;SDS011;65538;50.798;6.064;2023-08-01T10:31:27;8.43;;;2.40;;
76640;SDS011;65538;50.798;6.064;2023-08-01T10:33:52;6.90;;;2.80;;
76640;SDS011;65538;50.798;6.064;2023-08-01T10:36:27;6.30;;;2.58;;
76640;SDS011;65538;50.798;6.064;2023-08-01T10:38:55;6.20;;;2.38;;
76640;SDS011;65538;50.798;6.064;2023-08-01T10:41:27;9.95;;;3.70;;
76640;SDS011;65538;50.798;6.064;2023-08-01T10:44:05;7.90;;;2.90;;
76640;SDS011;65538;50.798;6.064;2023-08-01T10:49:15;13.07;;;3.15;;
76640;SDS011;65538;50.798;6.064;2023-08-01T10:51:40;6.55;;;2.28;;
76640;SDS011;65538;50.798;6.064;2023-08-01T10:54:06;7.30;;;2.83;;
76640;SDS011;65538;50.798;6.064;2023-08-01T10:56:31;7.75;;;2.85;;
76640;SDS011;65538;50.798;6.064;2023-08-01T10:58:57;8.57;;;2.70;;
76640;SDS011;65538;50.798;6.064;2023-08-01T11:01:22;9.85;;;3.08;;
76640;SDS011;65538;50.798;6.064;2023-08-01T11:03:47;6.23;;;2.23;;
76640;SDS011;65538;50.798;6.064;2023-08-01T11:06:13;4.47;;;2.03;;
76640;SDS011;65538;50.798;6.064;2023-08-01T11:08:38;6.60;;;1.70;;
76640;SDS011;65538;50.798;6.064;2023-08-01T11:11:13;6.18;;;1.98;;
76640;SDS011;65538;50.798;6.064;2023-08-01T11:13:41;6.30;;;1.83;;
76640;SDS011;65538;50.798;6.064;2023-08-01T11:16:14;9.82;;;2.30;;
76640;SDS011;65538;50.798;6.064;2023-08-01T11:18:42;3.43;;;2.03;;
76640;SDS011;65538;50.798;6.064;2023-08-01T11:21:07;7.38;;;2.17;;
76640;SDS011;65538;50.798;6.064;2023-08-01T11:23:33;8.20;;;2.30;;
76640;SDS011;65538;50.798;6.064;2023-08-01T11:25:58;6.47;;;2.10;;
76640;SDS011;65538;50.798;6.064;2023-08-01T11:28:23;5.28;;;2.20;;
76640;SDS011;65538;50.798;6.064;2023-08-01T11:30:49;5.70;;;2.45;;
76640;SDS011;65538;50.798;6.064;2023-08-01T11:33:21;5.90;;;1.60;;
76640;SDS011;65538;50.798;6.064;2023-08-01T11:35:51;5.05;;;1.67;;
76640;SDS011;65538;50.798;6.064;2023-08-01T11:38:17;6.13;;;1.80;;
76640;SDS011;65538;50.798;6.064;2023-08-01T11:40:42;2.80;;;1.50;;
76640;SDS011;65538;50.798;6.064;2023-08-01T11:43:07;3.60;;;1.37;;
76640;SDS011;65538;50.798;6.064;2023-08-01T11:45:32;3.83;;;1.40;;
76640;SDS011;65538;50.798;6.064;2023-08-01T11:47:58;5.20;;;1.63;;
76640;SDS011;65538;50.798;6.064;2023-08-01T11:50:23;5.67;;;1.60;;
76640;SDS011;65538;50.798;6.064;2023-08-01T11:52:49;4.30;;;1.60;;
76640;SDS011;65538;50.798;6.064;2023-08-01T11:55:23;5.97;;;1.50;;
76640;SDS011;65538;50.798;6.064;2023-08-01T11:57:52;4.25;;;1.48;;
76640;SDS011;65538;50.798;6.064;2023-08-01T12:00:21;5.22;;;1.58;;
76640;SDS011;65538;50.798;6.064;2023-08-01T12:02:47;4.63;;;1.52;;
76640;SDS011;65538;50.798;6.064;2023-08-01T12:05:20;6.17;;;1.50;;
76640;SDS011;65538;50.798;6.064;2023-08-01T12:07:45;6.13;;;1.67;;
76640;SDS011;65538;50.798;6.064;2023-08-01T12:10:11;2.55;;;1.08;;
76640;SDS011;65538;50.798;6.064;2023-08-01T12:12:42;15.53;;;2.20;;
76640;SDS011;65538;50.798;6.064;2023-08-01T12:15:08;2.58;;;1.33;;
76640;SDS011;65538;50.798;6.064;2023-08-01T12:17:33;3.10;;;1.33;;
76640;SDS011;65538;50.798;6.064;2023-08-01T12:19:58;3.73;;;1.50;;
76640;SDS011;65538;50.798;6.064;2023-08-01T12:22:23;6.53;;;1.63;;
76640;SDS011;65538;50.798;6.064;2023-08-01T12:24:49;3.03;;;0.93;;
76640;SDS011;65538;50.798;6.064;2023-08-01T12:27:14;3.77;;;1.60;;
76640;SDS011;65538;50.798;6.064;2023-08-01T12:29:40;4.95;;;1.67;;
76640;SDS011;65538;50.798;6.064;2023-08-01T12:32:05;4.43;;;1.37;;
76640;SDS011;65538;50.798;6.064;2023-08-01T12:34:31;4.53;;;1.52;;
76640;SDS011;65538;50.798;6.064;2023-08-01T12:36:57;5.90;;;1.88;;
76640;SDS011;65538;50.798;6.064;2023-08-01T12:39:23;7.28;;;1.90;;
76640;SDS011;65538;50.798;6.064;2023-08-01T12:41:50;6.20;;;1.90;;
76640;SDS011;65538;50.798;6.064;2023-08-01T12:44:15;6.10;;;2.00;;
76640;SDS011;65538;50.798;6.064;2023-08-01T12:46:45;3.97;;;1.55;;
76640;SDS011;65538;50.798;6.064;2023-08-01T12:49:31;8.30;;;2.42;;
76640;SDS011;65538;50.798;6.064;2023-08-01T12:52:05;5.07;;;1.80;;
76640;SDS011;65538;50.798;6.064;2023-08-01T12:56:56;9.35;;;1.77;;
76640;SDS011;65538;50.798;6.064;2023-08-01T12:59:21;6.40;;;2.53;;
76640;SDS011;65538;50.798;6.064;2023-08-01T13:01:46;6.37;;;1.90;;
76640;SDS011;65538;50.798;6.064;2023-08-01T13:04:11;5.43;;;1.67;;
76640;SDS011;65538;50.798;6.064;2023-08-01T13:06:36;6.87;;;1.40;;
76640;SDS011;65538;50.798;6.064;2023-08-01T13:09:02;6.60;;;2.07;;
76640;SDS011;65538;50.798;6.064;2023-08-01T13:11:27;6.63;;;1.90;;
76640;SDS011;65538;50.798;6.064;2023-08-01T13:13:53;6.40;;;1.90;;
76640;SDS011;65538;50.798;6.064;2023-08-01T13:16:18;7.57;;;2.50;;
76640;SDS011;65538;50.798;6.064;2023-08-01T13:18:43;7.97;;;2.80;;
76640;SDS011;65538;50.798;6.064;2023-08-01T13:21:09;10.65;;;2.92;;
76640;SDS011;65538;50.798;6.064;2023-08-01T13:23:34;8.13;;;3.08;;
76640;SDS011;65538;50.798;6.064;2023-08-01T13:25:59;5.57;;;3.00;;
76640;SDS011;65538;50.798;6.064;2023-08-01T13:28:27;8.73;;;3.13;;
76640;SDS011;65538;50.798;6.064;2023-08-01T13:30:52;7.37;;;2.33;;
76640;SDS011;65538;50.798;6.064;2023-08-01T13:33:17;5.93;;;2.10;;
76640;SDS011;65538;50.798;6.064;2023-08-01T13:35:42;4.43;;;1.93;;
76640;SDS011;65538;50.798;6.064;2023-08-01T13:38:07;7.07;;;2.07;;
76640;SDS011;65538;50.798;6.064;2023-08-01T13:40:33;8.03;;;2.47;;
76640;SDS011;65538;50.798;6.064;2023-08-01T13:42:58;6.73;;;1.73;;
76640;SDS011;65538;50.798;6.064;2023-08-01T13:45:23;11.27;;;2.40;;
76640;SDS011;65538;50.798;6.064;2023-08-01T13:47:48;6.30;;;2.37;;
76640;SDS011;65538;50.798;6.064;2023-08-01T13:50:13;7.87;;;2.00;;
76640;SDS011;65538;50.798;6.064;2023-08-01T13:52:39;8.20;;;2.23;;
76640;SDS011;65538;50.798;6.064;2023-08-01T13:55:04;6.30;;;2.10;;
76640;SDS011;65538;50.798;6.064;2023-08-01T13:57:31;5.60;;;2.42;;
76640;SDS011;65538;50.798;6.064;2023-08-01T13:59:56;5.80;;;2.20;;
76640;SDS011;65538;50.798;6.064;2023-08-01T14:02:22;5.10;;;2.70;;
76640;SDS011;65538;50.798;6.064;2023-08-01T14:04:50;6.77;;;2.73;;
76640;SDS011;65538;50.798;6.064;2023-08-01T14:07:15;8.00;;;2.75;;
76640;SDS011;65538;50.798;6.064;2023-08-01T14:09:40;9.87;;;3.70;;
76640;SDS011;65538;50.798;6.064;2023-08-01T14:12:06;8.57;;;3.27;;
76640;SDS011;65538;50.798;6.064;2023-08-01T14:14:31;8.88;;;3.50;;
76640;SDS011;65538;50.798;6.064;2023-08-01T14:16:56;11.57;;;3.50;;
76640;SDS011;65538;50.798;6.064;2023-08-01T14:19:22;10.53;;;2.83;;
76640;SDS011;65538;50.798;6.064;2023-08-01T14:21:47;7.93;;;3.08;;
76640;SDS011;65538;50.798;6.064;2023-08-01T14:24:12;7.07;;;2.93;;
76640;SDS011;65538;50.798;6.064;2023-08-01T14:26:37;7.03;;;2.33;;
76640;SDS011;65538;50.798;6.064;2023-08-01T14:29:04;7.75;;;2.85;;
76640;SDS011;65538;50.798;6.064;2023-08-01T14:31:29;11.17;;;3.60;;
76640;SDS011;65538;50.798;6.064;2023-08-01T14:33:54;10.23;;;3.63;;
76640;SDS011;65538;50.798;6.064;2023-08-01T14:36:19;6.90;;;3.47;;
76640;SDS011;65538;50.798;6.064;2023-08-01T14:38:45;10.60;;;3.17;;
76640;SDS011;65538;50.798;6.064;2023-08-01T14:41:12;10.25;;;3.75;;